createdAt,value
2019-03-29T00:01:36.841Z,9.33
2019-03-29T00:08:21.964Z,9.77
2019-03-29T00:15:08.101Z,10.53
2019-03-29T00:21:53.171Z,11.33
2019-03-29T00:28:38.047Z,10.70
2019-03-29T00:35:22.979Z,12.10
2019-03-29T00:42:07.851Z,11.30
2019-03-29T00:48:52.790Z,9.20
2019-03-29T00:55:37.639Z,11.77
2019-03-29T01:02:22.511Z,9.87
2019-03-29T01:09:07.921Z,12.77
2019-03-29T01:15:53.266Z,13.03
2019-03-29T01:22:38.220Z,14.10
2019-03-29T01:29:23.355Z,14.47
2019-03-29T01:36:08.215Z,12.87
2019-03-29T01:42:53.066Z,12.20
2019-03-29T01:49:38.010Z,12.70
2019-03-29T01:56:23.183Z,11.67
2019-03-29T02:03:08.103Z,13.70
2019-03-29T02:09:53.048Z,15.73
2019-03-29T02:16:38.178Z,13.97
2019-03-29T02:23:23.098Z,13.97
2019-03-29T02:30:09.520Z,13.13
2019-03-29T02:36:54.614Z,13.87
2019-03-29T02:43:39.648Z,14.13
2019-03-29T02:50:24.584Z,15.43
2019-03-29T02:57:09.669Z,15.27
2019-03-29T03:03:54.632Z,17.27
2019-03-29T03:10:39.499Z,19.70
2019-03-29T03:17:24.371Z,21.47
2019-03-29T03:24:09.338Z,15.80
2019-03-29T03:30:54.368Z,15.80
2019-03-29T03:37:39.387Z,19.57
2019-03-29T03:44:24.427Z,19.87
2019-03-29T03:51:10.439Z,21.90
2019-03-29T03:57:57.675Z,17.93
2019-03-29T04:04:42.280Z,19.43
2019-03-29T04:11:27.143Z,18.27
2019-03-29T04:18:15.865Z,21.57
2019-03-29T04:24:59.144Z,21.83
2019-03-29T04:31:44.186Z,19.30
2019-03-29T04:38:29.055Z,22.97
2019-03-29T04:45:14.148Z,21.60
2019-03-29T04:51:59.023Z,24.47
2019-03-29T04:58:43.893Z,23.57
2019-03-29T05:05:28.898Z,21.47
2019-03-29T05:12:13.778Z,21.80
2019-03-29T05:18:58.807Z,21.60
2019-03-29T05:25:43.688Z,21.87
2019-03-29T05:32:28.940Z,24.00
2019-03-29T05:39:14.335Z,19.53
2019-03-29T05:46:01.284Z,22.70
2019-03-29T05:52:46.716Z,23.67
2019-03-29T05:59:31.730Z,23.27
2019-03-29T06:06:16.597Z,23.17
2019-03-29T06:13:01.539Z,24.20
2019-03-29T06:19:46.503Z,18.33
2019-03-29T06:26:31.376Z,12.20
2019-03-29T06:33:16.244Z,11.77
2019-03-29T06:40:01.301Z,13.58
2019-03-29T06:46:47.245Z,10.30
2019-03-29T06:53:32.263Z,11.68
2019-03-29T07:00:17.414Z,14.53
2019-03-29T07:07:02.367Z,12.68
2019-03-29T07:13:57.267Z,15.83
2019-03-29T07:20:34.489Z,13.32
2019-03-29T07:27:19.364Z,15.48
2019-03-29T07:34:04.385Z,14.13
2019-03-29T07:40:49.255Z,12.58
2019-03-29T07:47:35.267Z,13.68
2019-03-29T07:54:20.224Z,12.65
2019-03-29T08:01:05.363Z,12.70
2019-03-29T08:07:50.230Z,13.20
2019-03-29T08:14:35.102Z,14.40
2019-03-29T08:21:19.971Z,13.15
2019-03-29T08:28:04.979Z,12.33
2019-03-29T08:34:49.922Z,12.47
2019-03-29T08:41:34.815Z,11.75
2019-03-29T08:48:19.686Z,11.22
2019-03-29T08:55:06.171Z,10.98
2019-03-29T09:01:51.371Z,11.08
2019-03-29T09:08:36.307Z,10.93
2019-03-29T09:15:21.171Z,10.32
2019-03-29T09:22:06.034Z,10.55
2019-03-29T09:28:50.895Z,9.58
2019-03-29T09:35:36.231Z,10.30
2019-03-29T09:42:29.083Z,10.23
2019-03-29T09:49:08.496Z,12.28
2019-03-29T09:55:53.666Z,9.40
2019-03-29T10:02:38.671Z,9.30
2019-03-29T10:09:23.535Z,6.80
2019-03-29T10:16:08.471Z,9.23
2019-03-29T10:22:53.396Z,7.72
2019-03-29T10:29:38.330Z,8.23
2019-03-29T10:36:23.192Z,9.30
2019-03-29T10:43:08.120Z,6.80
2019-03-29T10:49:52.970Z,7.62
2019-03-29T10:56:37.898Z,7.30
2019-03-29T11:03:23.279Z,7.08
2019-03-29T11:10:10.215Z,10.43
2019-03-29T11:16:55.165Z,5.78
2019-03-29T11:23:40.150Z,5.92
2019-03-29T11:30:25.070Z,5.30
2019-03-29T11:37:09.931Z,5.25
2019-03-29T11:43:54.898Z,4.75
2019-03-29T11:50:40.027Z,5.20
2019-03-29T11:57:25.270Z,4.78
2019-03-29T12:04:10.270Z,5.80
2019-03-29T12:10:55.285Z,4.25
2019-03-29T12:17:40.362Z,4.20
2019-03-29T12:24:25.495Z,6.05
2019-03-29T12:31:10.611Z,5.10
2019-03-29T12:37:55.535Z,7.62
2019-03-29T12:44:40.577Z,4.78
2019-03-29T12:51:26.376Z,7.08
2019-03-29T12:58:11.241Z,6.95
2019-03-29T13:04:56.172Z,5.50
2019-03-29T13:11:41.174Z,4.85
2019-03-29T13:18:26.038Z,5.67
2019-03-29T13:25:11.104Z,6.00
2019-03-29T13:31:56.044Z,6.40
2019-03-29T13:38:41.044Z,5.95
2019-03-29T13:45:27.816Z,8.45
2019-03-29T13:52:12.487Z,8.13
2019-03-29T13:58:57.338Z,7.60
2019-03-29T14:05:42.262Z,7.92
2019-03-29T14:12:27.127Z,12.63
2019-03-29T14:19:11.989Z,8.45
2019-03-29T14:25:56.847Z,9.15
2019-03-29T14:32:41.706Z,8.48
2019-03-29T14:39:26.634Z,7.15
2019-03-29T14:46:11.571Z,9.33
2019-03-29T14:52:56.442Z,9.53
2019-03-29T14:59:41.466Z,8.95
2019-03-29T15:06:26.462Z,9.20
2019-03-29T15:13:11.387Z,9.18
2019-03-29T15:19:56.252Z,8.73
2019-03-29T15:26:41.187Z,9.23
2019-03-29T15:33:26.051Z,8.93
2019-03-29T15:40:11.084Z,9.33
2019-03-29T15:46:56.018Z,10.45
2019-03-29T15:53:40.883Z,10.10
2019-03-29T16:00:25.743Z,9.10
2019-03-29T16:07:10.842Z,9.33
2019-03-29T16:13:55.770Z,9.60
2019-03-29T16:20:40.630Z,10.97
2019-03-29T16:27:25.556Z,9.93
2019-03-29T16:34:10.531Z,10.27
2019-03-29T16:40:55.829Z,11.57
2019-03-29T16:47:40.799Z,9.18
2019-03-29T16:54:25.748Z,9.87
2019-03-29T17:01:11.790Z,10.82
2019-03-29T17:07:56.683Z,9.87
2019-03-29T17:14:41.543Z,10.63
2019-03-29T17:21:26.477Z,12.40
2019-03-29T17:28:11.337Z,12.33
2019-03-29T17:34:56.392Z,10.33
2019-03-29T17:41:41.343Z,11.87
2019-03-29T17:48:26.265Z,8.40
2019-03-29T17:55:11.255Z,10.43
2019-03-29T18:02:08.810Z,14.97
2019-03-29T18:08:42.818Z,14.40
2019-03-29T18:15:27.751Z,13.50
2019-03-29T18:22:12.739Z,10.80
2019-03-29T18:28:57.612Z,17.17
2019-03-29T18:35:42.470Z,12.93
2019-03-29T18:42:27.334Z,13.33
2019-03-29T18:49:12.596Z,13.50
2019-03-29T18:55:57.458Z,11.03
2019-03-29T19:02:43.399Z,13.70
2019-03-29T19:09:31.531Z,14.03
2019-03-29T19:16:14.821Z,13.40
2019-03-29T19:23:00.023Z,14.57
2019-03-29T19:29:44.891Z,17.27
2019-03-29T19:36:29.826Z,25.13
2019-03-29T19:43:14.695Z,16.03
2019-03-29T19:49:59.555Z,13.80
2019-03-29T19:56:44.415Z,16.90
2019-03-29T20:03:29.313Z,14.77
2019-03-29T20:10:14.287Z,13.23
2019-03-29T20:16:59.225Z,15.20
2019-03-29T20:23:45.307Z,16.07
2019-03-29T20:30:30.316Z,18.23
2019-03-29T20:37:15.695Z,15.30
2019-03-29T20:44:00.718Z,17.03
2019-03-29T20:50:45.821Z,16.97
2019-03-29T20:57:30.804Z,18.80
2019-03-29T21:04:15.941Z,17.00
2019-03-29T21:11:01.381Z,17.40
2019-03-29T21:17:56.778Z,18.33
2019-03-29T21:24:34.097Z,16.37
2019-03-29T21:31:19.077Z,18.00
2019-03-29T21:38:04.435Z,16.77
2019-03-29T21:44:50.444Z,16.37
2019-03-29T21:51:35.294Z,19.00
2019-03-29T21:58:20.162Z,18.57
2019-03-29T22:05:05.880Z,18.43
2019-03-29T22:11:50.879Z,22.73
2019-03-29T22:18:38.029Z,16.97
2019-03-29T22:25:22.340Z,18.27
2019-03-29T22:32:07.239Z,43.57
2019-03-29T22:38:53.054Z,22.20
2019-03-29T22:45:38.276Z,20.53
2019-03-29T22:52:23.295Z,19.30
2019-03-29T22:59:08.742Z,19.03
2019-03-29T23:05:53.929Z,24.80
2019-03-29T23:12:39.020Z,21.63
2019-03-29T23:19:23.894Z,19.77
2019-03-29T23:26:09.217Z,25.87
2019-03-29T23:32:54.055Z,21.70
2019-03-29T23:39:38.986Z,23.13
2019-03-29T23:46:23.990Z,21.20
2019-03-29T23:53:08.979Z,24.87
2019-03-29T23:59:55.186Z,22.63
